createdAt,value
2017-06-21T00:01:38.735Z,1014.78
2017-06-21T00:02:19.770Z,1014.77
2017-06-21T00:04:56.226Z,1014.76
2017-06-21T00:05:37.170Z,1014.79
2017-06-21T00:07:19.098Z,1014.8
2017-06-21T00:08:00.002Z,1014.78
2017-06-21T00:08:40.935Z,1014.76
2017-06-21T00:09:21.790Z,1014.79
2017-06-21T00:10:02.683Z,1014.79
2017-06-21T00:10:43.570Z,1014.78
2017-06-21T00:11:24.464Z,1014.78
2017-06-21T00:12:05.362Z,1014.8
2017-06-21T00:12:46.249Z,1014.8
2017-06-21T00:13:27.130Z,1014.86
2017-06-21T00:14:08.067Z,1014.83
2017-06-21T00:14:48.924Z,1014.8
2017-06-21T00:15:29.811Z,1014.82
2017-06-21T00:16:10.703Z,1014.77
2017-06-21T00:16:51.599Z,1014.76
2017-06-21T00:17:32.490Z,1014.77
2017-06-21T00:18:13.385Z,1014.78
2017-06-21T00:18:54.272Z,1014.78
2017-06-21T00:19:35.159Z,1014.78
2017-06-21T00:20:16.050Z,1014.76
2017-06-21T00:20:56.942Z,1014.76
2017-06-21T00:21:37.839Z,1014.78
2017-06-21T00:22:18.761Z,1014.77
2017-06-21T00:22:59.648Z,1014.8
2017-06-21T00:23:40.545Z,1014.79
2017-06-21T00:24:21.428Z,1014.82
2017-06-21T00:25:02.326Z,1014.86
2017-06-21T00:25:43.245Z,1014.85
2017-06-21T00:26:24.162Z,1014.87
2017-06-21T00:27:05.026Z,1014.83
2017-06-21T00:27:46.009Z,1014.85
2017-06-21T00:28:26.910Z,1014.88
2017-06-21T00:29:07.787Z,1014.85
2017-06-21T00:29:48.691Z,1014.8
2017-06-21T00:30:29.580Z,1014.81
2017-06-21T00:31:10.462Z,1014.77
2017-06-21T00:31:51.352Z,1014.74
2017-06-21T00:32:32.275Z,1014.75
2017-06-21T00:33:13.166Z,1014.73
2017-06-21T00:33:54.072Z,1014.76
2017-06-21T00:34:34.963Z,1014.72
2017-06-21T00:35:15.883Z,1014.77
2017-06-21T00:35:56.734Z,1014.79
2017-06-21T00:36:37.612Z,1014.78
2017-06-21T00:37:18.486Z,1014.79
2017-06-21T00:37:59.379Z,1014.83
2017-06-21T00:38:40.278Z,1014.85
2017-06-21T00:39:21.158Z,1014.88
2017-06-21T00:40:02.053Z,1014.83
2017-06-21T00:40:42.955Z,1014.87
2017-06-21T00:41:23.839Z,1014.87
2017-06-21T00:42:04.728Z,1014.83
2017-06-21T00:42:45.614Z,1014.78
2017-06-21T00:43:26.499Z,1014.77
2017-06-21T00:44:07.390Z,1014.76
2017-06-21T00:44:48.282Z,1014.76
2017-06-21T00:45:29.176Z,1014.74
2017-06-21T00:46:10.065Z,1014.78
2017-06-21T00:48:39.205Z,1014.81
2017-06-21T00:49:20.102Z,1014.82
2017-06-21T00:50:00.992Z,1014.83
2017-06-21T00:50:41.888Z,1014.83
2017-06-21T00:51:22.775Z,1014.79
2017-06-21T00:52:03.658Z,1014.8
2017-06-21T00:52:44.552Z,1014.81
2017-06-21T00:53:25.554Z,1014.76
2017-06-21T00:57:12.141Z,1014.69
2017-06-21T00:57:53.032Z,1014.69
2017-06-21T00:58:33.932Z,1014.71
2017-06-21T00:59:14.829Z,1014.74
2017-06-21T00:59:55.706Z,1014.7
2017-06-21T01:00:36.593Z,1014.73
2017-06-21T01:01:17.485Z,1014.73
2017-06-21T01:01:58.394Z,1014.71
2017-06-21T01:02:39.274Z,1014.72
2017-06-21T01:03:20.168Z,1014.74
2017-06-21T01:04:01.066Z,1014.71
2017-06-21T01:04:41.945Z,1014.7
2017-06-21T01:05:22.860Z,1014.73
2017-06-21T01:06:03.761Z,1014.69
2017-06-21T01:06:44.640Z,1014.69
2017-06-21T01:07:25.531Z,1014.72
2017-06-21T01:08:06.417Z,1014.69
2017-06-21T01:08:47.304Z,1014.65
2017-06-21T01:09:28.175Z,1014.69
2017-06-21T01:10:09.064Z,1014.67
2017-06-21T01:10:49.953Z,1014.67
2017-06-21T01:11:30.835Z,1014.68
2017-06-21T01:12:11.715Z,1014.66
2017-06-21T01:12:52.606Z,1014.67
2017-06-21T01:13:33.486Z,1014.7
2017-06-21T01:14:14.391Z,1014.67
2017-06-21T01:14:55.291Z,1014.68
2017-06-21T01:15:36.181Z,1014.72
2017-06-21T01:16:17.082Z,1014.71
2017-06-21T01:16:57.975Z,1014.69
2017-06-21T01:17:38.873Z,1014.73
2017-06-21T01:18:19.778Z,1014.72
2017-06-21T01:19:00.676Z,1014.69
2017-06-21T01:19:41.566Z,1014.73
2017-06-21T01:20:22.462Z,1014.7
2017-06-21T01:21:03.351Z,1014.71
2017-06-21T01:21:44.230Z,1014.71
2017-06-21T01:22:25.121Z,1014.67
2017-06-21T01:23:06.009Z,1014.66
2017-06-21T01:23:46.894Z,1014.67
2017-06-21T01:24:27.793Z,1014.68
2017-06-21T01:25:08.676Z,1014.69
2017-06-21T01:25:49.557Z,1014.69
2017-06-21T01:26:30.439Z,1014.67
2017-06-21T01:27:11.358Z,1014.66
2017-06-21T01:27:52.258Z,1014.67
2017-06-21T01:28:33.152Z,1014.68
2017-06-21T01:29:14.062Z,1014.66
2017-06-21T01:29:54.933Z,1014.63
2017-06-21T01:30:35.936Z,1014.62
2017-06-21T01:31:16.789Z,1014.61
2017-06-21T01:32:56.483Z,1014.58
2017-06-21T01:33:37.372Z,1014.58
2017-06-21T01:34:18.267Z,1014.6
2017-06-21T01:34:59.163Z,1014.6
2017-06-21T01:35:40.120Z,1014.6
2017-06-21T01:36:21.014Z,1014.63
2017-06-21T01:37:01.915Z,1014.63
2017-06-21T01:37:42.812Z,1014.68
2017-06-21T01:38:23.691Z,1014.7
2017-06-21T01:39:04.581Z,1014.69
2017-06-21T01:39:45.463Z,1014.67
2017-06-21T01:40:26.341Z,1014.66
2017-06-21T01:41:07.229Z,1014.65
2017-06-21T01:41:48.120Z,1014.63
2017-06-21T01:42:29.024Z,1014.58
2017-06-21T01:43:09.912Z,1014.59
2017-06-21T01:43:50.800Z,1014.58
2017-06-21T01:44:31.693Z,1014.58
2017-06-21T01:45:12.584Z,1014.58
2017-06-21T01:45:53.476Z,1014.57
2017-06-21T01:46:34.392Z,1014.63
2017-06-21T01:47:15.263Z,1014.64
2017-06-21T01:47:56.152Z,1014.6
2017-06-21T01:48:37.025Z,1014.61
2017-06-21T01:49:17.905Z,1014.62
2017-06-21T01:49:58.810Z,1014.59
2017-06-21T01:50:39.689Z,1014.6
2017-06-21T01:51:20.595Z,1014.58
2017-06-21T01:52:01.487Z,1014.61
2017-06-21T01:52:42.366Z,1014.56
2017-06-21T01:53:23.252Z,1014.6
2017-06-21T01:55:37.032Z,1014.64
2017-06-21T01:56:18.023Z,1014.65
2017-06-21T01:56:58.938Z,1014.66
2017-06-21T01:57:39.900Z,1014.66
2017-06-21T01:58:20.868Z,1014.68
2017-06-21T01:59:02.728Z,1014.68
2017-06-21T01:59:43.754Z,1014.63
2017-06-21T02:00:24.630Z,1014.65
2017-06-21T02:01:05.546Z,1014.64
2017-06-21T02:01:46.579Z,1014.61
2017-06-21T02:02:27.541Z,1014.62
2017-06-21T02:03:08.432Z,1014.58
2017-06-21T02:07:10.714Z,1014.59
2017-06-21T02:07:51.612Z,1014.57
2017-06-21T02:08:32.562Z,1014.6
2017-06-21T02:09:13.457Z,1014.62
2017-06-21T02:09:54.405Z,1014.62
2017-06-21T02:10:35.282Z,1014.62
2017-06-21T02:11:16.212Z,1014.63
2017-06-21T02:11:57.139Z,1014.62
2017-06-21T02:12:38.024Z,1014.63
2017-06-21T02:13:18.922Z,1014.68
2017-06-21T02:14:00.667Z,1014.6
2017-06-21T02:14:41.574Z,1014.62
2017-06-21T02:15:22.503Z,1014.6
2017-06-21T02:16:03.422Z,1014.61
2017-06-21T02:16:44.332Z,1014.61
2017-06-21T02:17:25.199Z,1014.62
2017-06-21T02:18:06.097Z,1014.63
2017-06-21T02:18:46.983Z,1014.68
2017-06-21T02:19:27.935Z,1014.67
2017-06-21T02:20:08.958Z,1014.67
2017-06-21T02:20:49.880Z,1014.71
2017-06-21T02:21:30.785Z,1014.68
2017-06-21T02:22:11.737Z,1014.67
2017-06-21T02:22:52.706Z,1014.69
2017-06-21T02:23:33.628Z,1014.69
2017-06-21T02:24:14.510Z,1014.69
2017-06-21T02:24:55.415Z,1014.69
2017-06-21T02:25:36.293Z,1014.69
2017-06-21T02:26:17.159Z,1014.68
2017-06-21T02:27:55.542Z,1014.72
2017-06-21T02:28:36.415Z,1014.76
2017-06-21T02:29:17.332Z,1014.78
2017-06-21T02:29:58.270Z,1014.76
2017-06-21T02:30:39.174Z,1014.78
2017-06-21T02:31:20.086Z,1014.74
2017-06-21T02:32:01.035Z,1014.75
2017-06-21T02:32:41.908Z,1014.74
2017-06-21T02:33:22.815Z,1014.79
2017-06-21T02:34:03.726Z,1014.77
2017-06-21T02:34:44.627Z,1014.78
2017-06-21T02:35:25.559Z,1014.76
2017-06-21T02:36:06.460Z,1014.77
2017-06-21T02:36:47.887Z,1014.78
2017-06-21T02:37:28.847Z,1014.82
2017-06-21T02:38:09.698Z,1014.82
2017-06-21T02:40:38.869Z,1014.85
2017-06-21T02:41:19.753Z,1014.85
2017-06-21T02:42:00.660Z,1014.84
2017-06-21T02:42:41.534Z,1014.85
2017-06-21T02:43:22.423Z,1014.82
2017-06-21T02:44:03.299Z,1014.85
2017-06-21T02:44:44.182Z,1014.8
2017-06-21T02:45:25.048Z,1014.78
2017-06-21T02:46:05.934Z,1014.81
2017-06-21T02:46:46.822Z,1014.77
2017-06-21T02:47:27.713Z,1014.81
2017-06-21T02:48:08.595Z,1014.82
2017-06-21T02:48:49.491Z,1014.82
2017-06-21T02:49:30.375Z,1014.83
2017-06-21T02:50:11.252Z,1014.83
2017-06-21T02:50:52.146Z,1014.84
2017-06-21T02:51:33.037Z,1014.87
2017-06-21T02:52:13.915Z,1014.88
2017-06-21T02:52:54.785Z,1014.81
2017-06-21T02:53:35.673Z,1014.83
2017-06-21T02:54:16.566Z,1014.81
2017-06-21T02:54:57.452Z,1014.83
2017-06-21T02:55:38.330Z,1014.81
2017-06-21T02:56:19.228Z,1014.79
2017-06-21T02:57:00.117Z,1014.81
2017-06-21T02:57:41.001Z,1014.81
2017-06-21T02:58:21.903Z,1014.81
2017-06-21T02:59:02.781Z,1014.79
2017-06-21T02:59:43.665Z,1014.79
2017-06-21T03:00:24.542Z,1014.82
2017-06-21T03:01:05.440Z,1014.87
2017-06-21T03:01:46.345Z,1014.85
2017-06-21T03:02:27.225Z,1014.88
2017-06-21T03:03:08.541Z,1014.89
2017-06-21T03:03:49.435Z,1014.91
2017-06-21T03:04:30.349Z,1014.92
2017-06-21T03:05:11.247Z,1014.93
2017-06-21T03:05:52.168Z,1014.96
2017-06-21T03:06:33.019Z,1014.95
2017-06-21T03:07:13.910Z,1014.97
2017-06-21T03:07:54.809Z,1014.93
2017-06-21T03:08:35.695Z,1014.95
2017-06-21T03:09:16.578Z,1014.93
2017-06-21T03:09:57.494Z,1014.92
2017-06-21T03:10:38.481Z,1014.94
2017-06-21T03:11:19.515Z,1014.97
2017-06-21T03:12:00.449Z,1014.96
2017-06-21T03:12:41.343Z,1014.97
2017-06-21T03:13:22.343Z,1014.98
2017-06-21T03:14:03.170Z,1014.99
2017-06-21T03:14:44.110Z,1014.96
2017-06-21T03:15:24.995Z,1015
2017-06-21T03:16:05.894Z,1014.98
2017-06-21T03:18:35.017Z,1015.02
2017-06-21T03:19:15.907Z,1015.01
2017-06-21T03:19:56.804Z,1015.04
2017-06-21T03:20:37.706Z,1015.04
2017-06-21T03:21:18.605Z,1015.07
2017-06-21T03:21:59.483Z,1015.11
2017-06-21T03:22:40.377Z,1015.12
2017-06-21T03:23:21.260Z,1015.11
2017-06-21T03:24:02.150Z,1015.14
2017-06-21T03:24:43.034Z,1015.15
2017-06-21T03:25:23.924Z,1015.16
2017-06-21T03:26:04.817Z,1015.18
2017-06-21T03:26:45.711Z,1015.16
2017-06-21T03:27:26.602Z,1015.19
2017-06-21T03:28:07.512Z,1015.16
2017-06-21T03:28:48.367Z,1015.21
2017-06-21T03:29:29.268Z,1015.19
2017-06-21T03:30:10.994Z,1015.2
2017-06-21T03:30:51.974Z,1015.21
2017-06-21T03:31:32.920Z,1015.19
2017-06-21T03:32:13.806Z,1015.23
2017-06-21T03:32:54.735Z,1015.23
2017-06-21T03:33:35.617Z,1015.26
2017-06-21T03:34:16.488Z,1015.25
2017-06-21T03:34:57.402Z,1015.25
2017-06-21T03:35:38.420Z,1015.32
2017-06-21T03:36:19.256Z,1015.33
2017-06-21T03:37:00.165Z,1015.3
2017-06-21T03:37:41.179Z,1015.33
2017-06-21T03:38:22.123Z,1015.32
2017-06-21T03:39:03.126Z,1015.34
2017-06-21T03:39:44.062Z,1015.3
2017-06-21T03:40:25.027Z,1015.3
2017-06-21T03:41:05.999Z,1015.32
2017-06-21T03:41:46.907Z,1015.32
2017-06-21T03:42:27.829Z,1015.32
2017-06-21T03:43:08.734Z,1015.25
2017-06-21T03:43:49.643Z,1015.3
2017-06-21T03:44:30.602Z,1015.3
2017-06-21T03:45:11.803Z,1015.28
2017-06-21T03:45:52.733Z,1015.31
2017-06-21T03:46:33.621Z,1015.31
2017-06-21T03:47:14.485Z,1015.32
2017-06-21T03:47:55.429Z,1015.3
2017-06-21T03:48:36.347Z,1015.35
2017-06-21T03:49:17.242Z,1015.4
2017-06-21T03:49:58.138Z,1015.41
2017-06-21T03:50:39.146Z,1015.39
2017-06-21T03:51:20.089Z,1015.45
2017-06-21T03:53:33.841Z,1015.43
2017-06-21T03:54:14.805Z,1015.42
2017-06-21T03:54:55.729Z,1015.46
2017-06-21T03:55:36.675Z,1015.44
2017-06-21T03:56:17.738Z,1015.45
2017-06-21T03:56:59.487Z,1015.44
2017-06-21T03:57:40.525Z,1015.42
2017-06-21T03:58:21.422Z,1015.39
2017-06-21T03:59:02.306Z,1015.38
2017-06-21T04:02:06.633Z,1015.46
2017-06-21T04:06:11.967Z,1015.46
2017-06-21T04:06:52.851Z,1015.48
2017-06-21T04:07:33.737Z,1015.41
2017-06-21T04:08:14.621Z,1015.4
2017-06-21T04:08:55.503Z,1015.44
2017-06-21T04:09:36.382Z,1015.46
2017-06-21T04:10:17.269Z,1015.46
2017-06-21T04:10:58.181Z,1015.45
2017-06-21T04:11:39.078Z,1015.44
2017-06-21T04:12:20.004Z,1015.44
2017-06-21T04:13:01.649Z,1015.44
2017-06-21T04:13:42.558Z,1015.4
2017-06-21T04:14:23.489Z,1015.41
2017-06-21T04:15:04.410Z,1015.4
2017-06-21T04:15:45.319Z,1015.37
2017-06-21T04:16:26.207Z,1015.37
2017-06-21T04:17:07.101Z,1015.39
2017-06-21T04:17:48.033Z,1015.37
2017-06-21T04:18:28.988Z,1015.42
2017-06-21T04:19:09.896Z,1015.41
2017-06-21T04:19:50.831Z,1015.43
2017-06-21T04:20:31.739Z,1015.45
2017-06-21T04:21:12.597Z,1015.42
2017-06-21T04:21:53.644Z,1015.44
2017-06-21T04:22:34.506Z,1015.46
2017-06-21T04:23:15.401Z,1015.38
2017-06-21T04:23:56.319Z,1015.34
2017-06-21T04:24:37.330Z,1015.4
2017-06-21T04:25:18.232Z,1015.36
2017-06-21T04:25:59.142Z,1015.42
2017-06-21T04:26:40.048Z,1015.37
2017-06-21T04:27:22.900Z,1015.38
2017-06-21T04:28:03.775Z,1015.38
2017-06-21T04:28:48.922Z,1015.4
2017-06-21T04:29:29.832Z,1015.4
2017-06-21T04:30:12.448Z,1015.39
2017-06-21T04:30:53.351Z,1015.36
2017-06-21T04:32:55.955Z,1015.4
2017-06-21T04:33:36.851Z,1015.4
2017-06-21T04:35:15.255Z,1015.43
2017-06-21T04:35:56.190Z,1015.46
2017-06-21T04:36:37.135Z,1015.49
2017-06-21T04:37:18.039Z,1015.48
2017-06-21T04:37:58.967Z,1015.51
2017-06-21T04:39:32.238Z,1015.5
2017-06-21T04:40:13.232Z,1015.52
2017-06-21T04:40:54.186Z,1015.51
2017-06-21T04:41:35.108Z,1015.51
2017-06-21T04:42:16.012Z,1015.48
2017-06-21T04:42:56.903Z,1015.48
2017-06-21T04:43:37.763Z,1015.53
2017-06-21T04:44:20.365Z,1015.53
2017-06-21T04:46:31.416Z,1015.53
2017-06-21T04:47:12.396Z,1015.56
2017-06-21T04:47:53.293Z,1015.52
2017-06-21T04:48:34.189Z,1015.49
2017-06-21T04:49:15.107Z,1015.48
2017-06-21T04:49:56.633Z,1015.51
2017-06-21T04:50:37.546Z,1015.56
2017-06-21T04:51:20.191Z,1015.51
2017-06-21T04:52:03.814Z,1015.52
2017-06-21T04:52:46.191Z,1015.5
2017-06-21T04:53:27.071Z,1015.54
2017-06-21T04:54:07.950Z,1015.51
2017-06-21T04:54:49.023Z,1015.51
2017-06-21T04:55:29.915Z,1015.51
2017-06-21T04:56:10.804Z,1015.54
2017-06-21T04:56:51.684Z,1015.52
2017-06-21T04:57:32.644Z,1015.54
2017-06-21T04:58:17.043Z,1015.55
2017-06-21T04:58:57.930Z,1015.52
2017-06-21T04:59:38.830Z,1015.55
2017-06-21T05:00:19.728Z,1015.55
2017-06-21T05:01:00.622Z,1015.55
2017-06-21T05:01:41.502Z,1015.54
2017-06-21T05:02:22.398Z,1015.57
2017-06-21T05:03:03.284Z,1015.52
2017-06-21T05:03:44.157Z,1015.54
2017-06-21T05:04:25.059Z,1015.56
2017-06-21T05:05:05.965Z,1015.56
2017-06-21T05:05:46.859Z,1015.51
2017-06-21T05:06:27.756Z,1015.48
2017-06-21T05:07:08.665Z,1015.48
2017-06-21T05:07:49.568Z,1015.48
2017-06-21T05:08:30.454Z,1015.47
2017-06-21T05:09:11.347Z,1015.53
2017-06-21T05:09:52.311Z,1015.48
2017-06-21T05:10:33.225Z,1015.45
2017-06-21T05:11:14.150Z,1015.47
2017-06-21T05:11:55.041Z,1015.45
2017-06-21T05:12:35.937Z,1015.44
2017-06-21T05:13:19.322Z,1015.47
2017-06-21T05:14:00.236Z,1015.47
2017-06-21T05:14:41.129Z,1015.46
2017-06-21T05:15:22.019Z,1015.46
2017-06-21T05:16:02.921Z,1015.43
2017-06-21T05:16:43.843Z,1015.46
2017-06-21T05:17:24.712Z,1015.44
2017-06-21T05:18:05.612Z,1015.47
2017-06-21T05:18:46.505Z,1015.45
2017-06-21T05:19:27.396Z,1015.45
2017-06-21T05:20:08.321Z,1015.44
2017-06-21T05:21:46.767Z,1015.49
2017-06-21T05:22:27.694Z,1015.5
2017-06-21T05:23:08.705Z,1015.48
2017-06-21T05:23:49.592Z,1015.45
2017-06-21T05:24:30.467Z,1015.47
2017-06-21T05:25:11.395Z,1015.47
2017-06-21T05:25:52.291Z,1015.45
2017-06-21T05:26:33.182Z,1015.45
2017-06-21T05:27:14.095Z,1015.46
2017-06-21T05:27:54.980Z,1015.5
2017-06-21T05:28:35.883Z,1015.48
2017-06-21T05:29:16.813Z,1015.43
2017-06-21T05:29:57.685Z,1015.46
2017-06-21T05:30:38.578Z,1015.49
2017-06-21T05:31:19.488Z,1015.46
2017-06-21T05:32:00.399Z,1015.47
2017-06-21T05:32:41.312Z,1015.46
2017-06-21T05:33:22.192Z,1015.41
2017-06-21T05:34:03.104Z,1015.47
2017-06-21T05:34:43.998Z,1015.48
2017-06-21T05:35:24.885Z,1015.46
2017-06-21T05:38:49.870Z,1015.44
2017-06-21T05:39:31.647Z,1015.47
2017-06-21T05:41:10.050Z,1015.42
2017-06-21T05:41:50.964Z,1015.42
2017-06-21T05:42:31.865Z,1015.46
2017-06-21T05:43:12.743Z,1015.46
2017-06-21T05:43:53.645Z,1015.49
2017-06-21T05:44:34.545Z,1015.47
2017-06-21T05:45:15.435Z,1015.5
2017-06-21T05:45:56.316Z,1015.5
2017-06-21T05:46:37.216Z,1015.5
2017-06-21T05:47:18.111Z,1015.54
2017-06-21T05:47:58.999Z,1015.55
2017-06-21T05:48:39.908Z,1015.59
2017-06-21T05:49:20.801Z,1015.53
2017-06-21T05:50:01.775Z,1015.51
2017-06-21T05:51:40.621Z,1015.51
2017-06-21T05:52:21.507Z,1015.51
2017-06-21T05:53:02.389Z,1015.52
2017-06-21T05:53:43.272Z,1015.51
2017-06-21T05:54:24.165Z,1015.49
2017-06-21T05:55:05.049Z,1015.52
2017-06-21T05:55:45.931Z,1015.54
2017-06-21T05:56:26.856Z,1015.53
2017-06-21T05:57:07.814Z,1015.49
2017-06-21T05:57:48.708Z,1015.5
2017-06-21T05:58:29.608Z,1015.53
2017-06-21T05:59:10.483Z,1015.49
2017-06-21T05:59:51.367Z,1015.47
2017-06-21T06:00:32.255Z,1015.42
2017-06-21T06:02:49.645Z,1015.38
2017-06-21T06:03:30.542Z,1015.43
2017-06-21T06:04:11.486Z,1015.36
2017-06-21T06:04:52.380Z,1015.4
2017-06-21T06:05:33.269Z,1015.36
2017-06-21T06:06:14.168Z,1015.38
2017-06-21T06:06:55.047Z,1015.4
2017-06-21T06:07:35.935Z,1015.36
2017-06-21T06:08:16.831Z,1015.36
2017-06-21T06:08:57.721Z,1015.35
2017-06-21T06:09:38.624Z,1015.37
2017-06-21T06:10:19.635Z,1015.39
2017-06-21T06:11:00.525Z,1015.4
2017-06-21T06:11:41.412Z,1015.4
2017-06-21T06:12:22.298Z,1015.38
2017-06-21T06:13:03.196Z,1015.4
2017-06-21T06:13:44.089Z,1015.43
2017-06-21T06:14:24.988Z,1015.45
2017-06-21T06:15:05.924Z,1015.4
2017-06-21T06:15:46.824Z,1015.43
2017-06-21T06:18:28.075Z,1015.31
2017-06-21T06:19:08.951Z,1015.29
2017-06-21T06:23:33.194Z,1015.3
2017-06-21T06:24:14.112Z,1015.3
2017-06-21T06:24:55.010Z,1015.32
2017-06-21T06:25:35.918Z,1015.36
2017-06-21T06:26:16.860Z,1015.38
2017-06-21T06:28:26.086Z,1015.37
2017-06-21T06:30:19.757Z,1015.41
2017-06-21T06:31:00.687Z,1015.39
2017-06-21T06:31:41.962Z,1015.41
2017-06-21T06:32:22.762Z,1015.39
2017-06-21T06:33:03.681Z,1015.37
2017-06-21T06:33:44.559Z,1015.32
2017-06-21T06:34:25.445Z,1015.28
2017-06-21T06:37:50.296Z,1015.26
2017-06-21T06:38:32.795Z,1015.23
2017-06-21T06:39:13.711Z,1015.25
2017-06-21T06:41:13.924Z,1015.23
2017-06-21T06:41:54.816Z,1015.25
2017-06-21T06:42:35.736Z,1015.29
2017-06-21T06:43:16.640Z,1015.3
2017-06-21T06:43:57.526Z,1015.3
2017-06-21T06:44:38.440Z,1015.31
2017-06-21T06:45:19.380Z,1015.28
2017-06-21T06:46:00.225Z,1015.21
2017-06-21T06:46:41.145Z,1015.24
2017-06-21T06:47:22.145Z,1015.24
2017-06-21T06:50:51.803Z,1015.21
2017-06-21T06:51:32.713Z,1015.19
2017-06-21T06:52:13.637Z,1015.18
2017-06-21T06:52:54.552Z,1015.19
2017-06-21T06:53:38.361Z,1015.17
2017-06-21T06:54:19.269Z,1015.16
2017-06-21T06:57:43.988Z,1015.16
2017-06-21T06:58:24.881Z,1015.17
2017-06-21T06:59:06.407Z,1015.23
2017-06-21T06:59:47.336Z,1015.18
2017-06-21T07:00:28.224Z,1015.22
2017-06-21T07:01:09.403Z,1015.22
2017-06-21T07:01:52.896Z,1015.2
2017-06-21T07:02:33.900Z,1015.23
2017-06-21T07:03:14.808Z,1015.21
2017-06-21T07:03:55.706Z,1015.25
2017-06-21T07:06:58.177Z,1015.22
2017-06-21T07:07:39.115Z,1015.25
2017-06-21T07:12:05.471Z,1015.29
2017-06-21T07:12:46.411Z,1015.3
2017-06-21T07:13:27.303Z,1015.27
2017-06-21T07:14:08.316Z,1015.26
2017-06-21T07:14:49.277Z,1015.28
2017-06-21T07:15:30.156Z,1015.32
2017-06-21T07:16:11.070Z,1015.31
2017-06-21T07:16:51.980Z,1015.29
2017-06-21T07:17:32.897Z,1015.31
2017-06-21T07:18:13.821Z,1015.29
2017-06-21T07:18:54.726Z,1015.26
2017-06-21T07:19:35.646Z,1015.31
2017-06-21T07:20:16.559Z,1015.32
2017-06-21T07:20:57.461Z,1015.35
2017-06-21T07:21:38.454Z,1015.31
2017-06-21T07:22:19.411Z,1015.31
2017-06-21T07:23:01.852Z,1015.29
2017-06-21T07:23:44.354Z,1015.28
2017-06-21T07:25:40.628Z,1015.25
2017-06-21T07:26:21.647Z,1015.3
2017-06-21T07:27:02.669Z,1015.29
2017-06-21T07:27:43.571Z,1015.29
2017-06-21T07:31:38.806Z,1015.33
2017-06-21T07:32:19.701Z,1015.33
2017-06-21T07:34:33.906Z,1015.41
2017-06-21T07:35:14.830Z,1015.4
2017-06-21T07:35:55.724Z,1015.39
2017-06-21T07:36:36.719Z,1015.33
2017-06-21T07:37:17.606Z,1015.32
2017-06-21T07:39:34.947Z,1015.24
2017-06-21T07:40:15.900Z,1015.25
2017-06-21T07:40:59.578Z,1015.26
2017-06-21T07:41:40.438Z,1015.25
2017-06-21T07:42:21.346Z,1015.36
2017-06-21T07:43:02.262Z,1015.28
2017-06-21T07:45:31.560Z,1015.36
2017-06-21T07:46:12.565Z,1015.35
2017-06-21T07:46:53.522Z,1015.28
2017-06-21T07:47:34.437Z,1015.3
2017-06-21T07:48:15.350Z,1015.28
2017-06-21T07:48:56.238Z,1015.28
2017-06-21T07:52:05.627Z,1015.28
2017-06-21T07:52:46.479Z,1015.28
2017-06-21T07:53:27.394Z,1015.23
2017-06-21T07:54:08.378Z,1015.24
2017-06-21T07:55:51.609Z,1015.25
2017-06-21T07:56:34.002Z,1015.22
2017-06-21T07:57:16.504Z,1015.22
2017-06-21T07:57:57.481Z,1015.27
2017-06-21T07:58:38.382Z,1015.29
2017-06-21T07:59:19.391Z,1015.31
2017-06-21T08:00:00.273Z,1015.31
2017-06-21T08:00:43.169Z,1015.38
2017-06-21T08:02:42.060Z,1015.34
2017-06-21T08:03:22.966Z,1015.37
2017-06-21T08:04:03.872Z,1015.4
2017-06-21T08:04:44.784Z,1015.39
2017-06-21T08:05:25.690Z,1015.38
2017-06-21T08:06:06.621Z,1015.34
2017-06-21T08:06:47.532Z,1015.32
2017-06-21T08:07:28.447Z,1015.35
2017-06-21T08:08:09.391Z,1015.3
2017-06-21T08:08:50.318Z,1015.26
2017-06-21T08:09:31.272Z,1015.3
2017-06-21T08:11:31.151Z,1015.27
2017-06-21T08:12:12.097Z,1015.22
2017-06-21T08:12:53.012Z,1015.21
2017-06-21T08:13:33.974Z,1015.22
2017-06-21T08:14:14.952Z,1015.22
2017-06-21T08:17:23.396Z,1015.25
2017-06-21T08:18:04.363Z,1015.19
2017-06-21T08:19:41.821Z,1015.21
2017-06-21T08:20:22.730Z,1015.22
2017-06-21T08:22:41.121Z,1015.15
2017-06-21T08:23:22.031Z,1015.18
2017-06-21T08:25:36.006Z,1015.23
2017-06-21T08:26:16.992Z,1015.24
2017-06-21T08:29:33.392Z,1015.23
2017-06-21T08:30:15.354Z,1015.21
2017-06-21T08:32:52.024Z,1015.22
2017-06-21T08:33:33.194Z,1015.25
2017-06-21T08:34:14.291Z,1015.25
2017-06-21T08:34:55.051Z,1015.21
2017-06-21T08:35:35.988Z,1015.27
2017-06-21T08:43:09.537Z,1015.11
2017-06-21T08:43:50.444Z,1015.13
2017-06-21T08:44:31.339Z,1015.13
2017-06-21T08:45:12.235Z,1015.14
2017-06-21T08:45:53.149Z,1015.13
2017-06-21T08:46:34.061Z,1015.15
2017-06-21T08:47:14.970Z,1015.17
2017-06-21T08:47:55.959Z,1015.19
2017-06-21T08:48:36.866Z,1015.16
2017-06-21T08:49:17.769Z,1015.13
2017-06-21T08:49:58.685Z,1015.08
2017-06-21T08:50:39.599Z,1015.12
2017-06-21T08:51:20.514Z,1015.1
2017-06-21T08:55:14.237Z,1015.15
2017-06-21T08:55:55.154Z,1015.21
2017-06-21T08:56:36.066Z,1015.19
2017-06-21T08:57:16.978Z,1015.13
2017-06-21T08:57:57.892Z,1015.13
2017-06-21T08:58:38.806Z,1015.06
2017-06-21T08:59:19.708Z,1015.07
2017-06-21T09:00:00.622Z,1015.08
2017-06-21T09:00:41.537Z,1015.05
2017-06-21T09:01:22.457Z,1015.08
2017-06-21T09:02:03.365Z,1015.06
2017-06-21T09:02:44.290Z,1015.04
2017-06-21T09:03:25.208Z,1015.04
2017-06-21T09:04:06.169Z,1015.02
2017-06-21T09:04:47.070Z,1015.07
2017-06-21T09:05:27.979Z,1015.09
2017-06-21T09:06:08.892Z,1015.09
2017-06-21T09:06:49.819Z,1015.08
2017-06-21T09:07:30.741Z,1015.06
2017-06-21T09:08:11.649Z,1015.13
2017-06-21T09:08:52.574Z,1015.12
2017-06-21T09:09:33.492Z,1015.13
2017-06-21T09:10:14.395Z,1015.16
2017-06-21T09:10:55.301Z,1015.12
2017-06-21T09:11:36.215Z,1015.09
2017-06-21T09:12:17.135Z,1015.06
2017-06-21T09:12:58.062Z,1015.08
2017-06-21T09:13:38.965Z,1015.1
2017-06-21T09:14:19.894Z,1015.08
2017-06-21T09:15:00.803Z,1015.11
2017-06-21T09:15:41.726Z,1015.14
2017-06-21T09:16:22.643Z,1015.11
2017-06-21T09:17:03.586Z,1015.09
2017-06-21T09:17:44.491Z,1015.13
2017-06-21T09:18:25.410Z,1015.14
2017-06-21T09:19:06.310Z,1015.1
2017-06-21T09:19:47.227Z,1015.06
2017-06-21T09:20:28.141Z,1015.11
2017-06-21T09:21:09.071Z,1015.14
2017-06-21T09:21:49.978Z,1015.18
2017-06-21T09:22:30.907Z,1015.12
2017-06-21T09:23:11.813Z,1015.15
2017-06-21T09:23:52.722Z,1015.16
2017-06-21T09:24:33.630Z,1015.12
2017-06-21T09:25:14.531Z,1015.16
2017-06-21T09:25:55.448Z,1015.16
2017-06-21T09:26:36.373Z,1015.17
2017-06-21T09:27:17.290Z,1015.2
2017-06-21T09:27:58.199Z,1015.14
2017-06-21T09:28:39.140Z,1015.16
2017-06-21T09:29:20.081Z,1015.14
2017-06-21T09:30:00.980Z,1015.12
2017-06-21T09:30:41.893Z,1015.13
2017-06-21T09:31:22.801Z,1015.12
2017-06-21T09:32:03.717Z,1015.11
2017-06-21T09:32:44.629Z,1015.07
2017-06-21T09:33:25.540Z,1015.07
2017-06-21T09:34:06.476Z,1015.07
2017-06-21T09:34:47.362Z,1015.09
2017-06-21T09:35:28.281Z,1015.15
2017-06-21T09:36:09.200Z,1015.08
2017-06-21T09:36:50.113Z,1015.12
2017-06-21T09:37:31.018Z,1015.18
2017-06-21T09:38:11.931Z,1015.15
2017-06-21T09:38:53.613Z,1015.12
2017-06-21T09:39:33.750Z,1015.11
2017-06-21T09:40:14.653Z,1015.1
2017-06-21T09:40:55.568Z,1015.1
2017-06-21T09:41:36.556Z,1015.1
2017-06-21T09:42:17.490Z,1015.14
2017-06-21T09:42:58.395Z,1015.17
2017-06-21T09:43:39.303Z,1015.21
2017-06-21T09:44:20.218Z,1015.19
2017-06-21T09:45:01.141Z,1015.21
2017-06-21T09:45:42.083Z,1015.1
2017-06-21T09:46:23.080Z,1015.12
2017-06-21T09:47:04.004Z,1015.14
2017-06-21T09:47:44.913Z,1015.11
2017-06-21T09:48:25.822Z,1015.09
2017-06-21T09:49:06.738Z,1015.08
2017-06-21T09:49:47.655Z,1015.06
2017-06-21T09:50:28.570Z,1015.04
2017-06-21T09:51:09.496Z,1014.99
2017-06-21T09:51:50.423Z,1015.01
2017-06-21T09:52:31.323Z,1015.03
2017-06-21T09:53:12.237Z,1015.02
2017-06-21T09:53:53.147Z,1015.08
2017-06-21T09:54:34.056Z,1015.03
2017-06-21T09:55:14.963Z,1015.05
2017-06-21T09:55:55.876Z,1015.06
2017-06-21T09:56:36.793Z,1015.08
2017-06-21T09:57:17.712Z,1015.09